Time;durP1;ratioP1;P1;durP2;ratioP2;P2;SDS_P1;SDS_P2;PMS_P1;PMS_P2;Temp;Humidity;BMP_temperature;BMP_pressure;BME280_temperature;BME280_humidity;BME280_pressure;Samples;Min_cycle;Max_cycle;Signal;HPM_P1;HPM_P2
2021/12/14 00:01:15;;;;;;;231.30;126.10;;;;;;;0.71;100.00;100037.34;103238;1310;61307;-84
2021/12/14 00:03:48;;;;;;;231.10;123.90;;;;;;;0.72;100.00;100035.23;105165;1307;61224;-84
2021/12/14 00:06:32;;;;;;;222.90;119.50;;;;;;;0.70;100.00;100034.73;105239;1311;74206;-83
2021/12/14 00:09:01;;;;;;;226.20;121.20;;;;;;;0.68;100.00;100032.48;105233;1307;69383;-82
2021/12/14 00:15:03;;;;;;;210.40;120.30;;;;;;;0.67;100.00;100027.95;103607;1307;61323;-81
2021/12/14 00:17:26;;;;;;;205.20;118.00;;;;;;;0.67;100.00;100026.90;103818;1308;61356;-85
2021/12/14 00:19:56;;;;;;;215.30;122.90;;;;;;;0.69;100.00;100027.75;103419;1314;76224;-83
2021/12/14 00:24:06;;;;;;;209.60;120.10;;;;;;;0.71;100.00;100023.52;103007;1315;67265;-87
2021/12/14 00:25:28;;;;;;;198.90;117.30;;;;;;;0.74;100.00;100021.91;103318;1307;74405;-83
2021/12/14 00:27:56;;;;;;;205.80;116.90;;;;;;;0.74;100.00;100023.49;103102;1308;61314;-83
2021/12/14 00:30:24;;;;;;;198.70;120.90;;;;;;;0.73;100.00;100025.42;103028;1307;61382;-83
2021/12/14 00:33:12;;;;;;;198.80;116.70;;;;;;;0.71;100.00;100025.45;103059;1308;76207;-82
2021/12/14 00:35:40;;;;;;;200.40;117.80;;;;;;;0.69;100.00;100027.91;102741;1315;69296;-78
2021/12/14 00:38:09;;;;;;;205.10;116.80;;;;;;;0.69;100.00;100030.71;102803;1307;71690;-79
2021/12/14 00:40:39;;;;;;;214.90;121.90;;;;;;;0.69;100.00;100033.52;102724;1307;61318;-80
2021/12/14 00:43:06;;;;;;;208.80;122.70;;;;;;;0.69;100.00;100033.69;102701;1307;61339;-80
2021/12/14 00:45:38;;;;;;;212.40;122.30;;;;;;;0.70;100.00;100037.69;103004;1310;74948;-83
2021/12/14 00:48:07;;;;;;;211.00;120.20;;;;;;;0.72;100.00;100040.48;103029;1308;69274;-80
2021/12/14 00:50:35;;;;;;;208.30;123.00;;;;;;;0.74;100.00;100042.03;102663;1307;73507;-77
2021/12/14 00:53:02;;;;;;;198.20;117.00;;;;;;;0.76;100.00;100041.83;102423;1311;61393;-76
2021/12/14 00:55:35;;;;;;;203.90;120.00;;;;;;;0.77;100.00;100040.05;102572;1307;61337;-78
2021/12/14 00:58:03;;;;;;;205.90;117.60;;;;;;;0.77;100.00;100038.67;102604;1307;74294;-77
2021/12/14 01:00:38;;;;;;;197.80;116.70;;;;;;;0.76;100.00;100039.56;102521;1311;70803;-77
2021/12/14 01:03:06;;;;;;;200.70;116.30;;;;;;;0.78;100.00;100039.89;102531;1307;74322;-79
2021/12/14 01:05:37;;;;;;;214.20;122.00;;;;;;;0.81;100.00;100039.34;102650;1311;61295;-78
2021/12/14 01:08:08;;;;;;;202.30;119.10;;;;;;;0.83;100.00;100033.89;102602;1307;61335;-76
2021/12/14 01:10:46;;;;;;;209.20;120.20;;;;;;;0.81;100.00;100036.36;102704;1314;74824;-76
2021/12/14 01:13:14;;;;;;;217.30;124.80;;;;;;;0.79;100.00;100041.63;102613;1307;69613;-77
2021/12/14 01:15:58;;;;;;;226.30;126.50;;;;;;;0.77;100.00;100038.33;102400;1313;73163;-76
2021/12/14 01:18:47;;;;;;;212.50;118.00;;;;;;;0.75;100.00;100039.73;102535;1307;61356;-76
2021/12/14 01:22:15;;;;;;;208.10;122.70;;;;;;;0.75;100.00;100038.16;102334;1308;61510;-75
2021/12/14 01:24:21;;;;;;;230.00;128.90;;;;;;;0.73;100.00;100038.37;102510;1308;75232;-76
2021/12/14 01:26:48;;;;;;;253.90;132.60;;;;;;;0.73;100.00;100036.08;102520;1307;69641;-77
2021/12/14 01:29:17;;;;;;;224.30;126.50;;;;;;;0.74;100.00;100032.58;102541;1307;73203;-76
2021/12/14 01:31:48;;;;;;;228.30;128.20;;;;;;;0.73;100.00;100033.29;102683;1307;61203;-77
2021/12/14 01:34:20;;;;;;;224.50;126.20;;;;;;;0.74;100.00;100028.20;102562;1311;62315;-77
2021/12/14 01:36:53;;;;;;;218.90;127.40;;;;;;;0.77;100.00;100022.58;102505;1311;75924;-76
2021/12/14 01:41:57;;;;;;;256.40;136.30;;;;;;;0.79;100.00;100025.36;102538;1311;74511;-78
2021/12/14 01:44:27;;;;;;;238.60;136.60;;;;;;;0.80;100.00;100027.98;102549;1307;61292;-77
2021/12/14 01:46:59;;;;;;;265.30;147.90;;;;;;;0.80;100.00;100025.70;102589;1307;61327;-76
2021/12/14 01:49:28;;;;;;;247.50;139.60;;;;;;;0.79;100.00;100020.29;102524;1308;75356;-76
2021/12/14 01:51:59;;;;;;;246.70;139.00;;;;;;;0.78;100.00;100018.20;102590;1307;69675;-76
2021/12/14 01:54:32;;;;;;;249.70;137.10;;;;;;;0.75;100.00;100017.34;102592;1311;73470;-76
2021/12/14 01:57:03;;;;;;;252.20;138.00;;;;;;;0.75;100.00;100014.03;102616;1308;61293;-77
2021/12/14 01:59:36;;;;;;;347.60;183.30;;;;;;;0.73;100.00;100019.83;102697;1308;61436;-76
2021/12/14 02:02:29;;;;;;;324.70;175.50;;;;;;;0.73;100.00;100024.02;102833;1308;74650;-76
2021/12/14 02:04:59;;;;;;;310.10;165.10;;;;;;;0.73;100.00;100025.77;102862;1307;69221;-76
2021/12/14 02:07:27;;;;;;;279.90;152.20;;;;;;;0.73;100.00;100027.34;102752;1308;74301;-76
2021/12/14 02:10:02;;;;;;;262.80;142.20;;;;;;;0.74;100.00;100023.66;102343;1315;61304;-77
2021/12/14 02:12:31;;;;;;;262.80;145.20;;;;;;;0.73;100.00;100021.91;102720;1308;61785;-77
2021/12/14 02:15:11;;;;;;;245.00;136.40;;;;;;;0.74;100.00;100013.16;102713;1307;74476;-77
2021/12/14 02:17:39;;;;;;;245.90;134.30;;;;;;;0.74;100.00;100016.14;102655;1314;70224;-76
2021/12/14 02:20:09;;;;;;;256.50;136.10;;;;;;;0.74;100.00;100015.61;102660;1311;73354;-76
2021/12/14 02:22:36;;;;;;;252.10;135.10;;;;;;;0.73;100.00;100015.45;102797;1307;61418;-77
2021/12/14 02:25:05;;;;;;;246.00;131.90;;;;;;;0.74;100.00;100019.80;102843;1307;61301;-76
2021/12/14 02:27:40;;;;;;;248.90;132.70;;;;;;;0.75;100.00;100021.90;102913;1307;76639;-76
2021/12/14 02:30:14;;;;;;;244.70;132.90;;;;;;;0.75;100.00;100024.70;102877;1307;70192;-75
2021/12/14 02:32:41;;;;;;;266.90;140.80;;;;;;;0.72;100.00;100024.73;103042;1313;73524;-76
2021/12/14 02:35:12;;;;;;;265.80;136.60;;;;;;;0.70;100.00;100030.70;103295;1315;61331;-77
2021/12/14 02:37:41;;;;;;;269.60;141.30;;;;;;;0.69;100.00;100022.50;103380;1312;61357;-76
2021/12/14 02:40:20;;;;;;;261.90;139.50;;;;;;;0.74;100.00;100025.93;103362;1315;75479;-77
2021/12/14 02:42:50;;;;;;;254.10;133.50;;;;;;;0.77;100.00;100021.87;105569;1315;70331;-76
2021/12/14 02:45:24;;;;;;;262.30;138.30;;;;;;;0.78;100.00;100020.83;105807;1307;73387;-75
2021/12/14 02:47:51;;;;;;;270.70;136.70;;;;;;;0.79;100.00;100018.55;105330;1317;59513;-76
2021/12/14 02:50:21;;;;;;;267.50;138.50;;;;;;;0.81;100.00;100019.56;105261;1316;59829;-76
2021/12/14 02:52:47;;;;;;;267.50;138.70;;;;;;;0.85;100.00;100021.80;104790;1308;75396;-76
2021/12/14 02:55:20;;;;;;;266.60;137.10;;;;;;;0.88;100.00;100020.71;102712;1307;69584;-77
2021/12/14 02:57:51;;;;;;;263.70;138.30;;;;;;;0.89;100.00;100019.30;102452;1313;73964;-79
2021/12/14 03:00:41;;;;;;;266.80;137.40;;;;;;;0.88;100.00;100023.68;102798;1308;61408;-77
2021/12/14 03:03:09;;;;;;;258.80;132.60;;;;;;;0.87;100.00;100019.49;102690;1313;61320;-77
2021/12/14 03:05:40;;;;;;;279.40;136.10;;;;;;;0.88;100.00;100018.27;102591;1307;76370;-77
2021/12/14 03:08:15;;;;;;;265.80;130.90;;;;;;;0.89;100.00;100022.27;102578;1314;70202;-77
2021/12/14 03:10:57;;;;;;;254.30;130.00;;;;;;;0.90;100.00;100022.45;102587;1311;73282;-75
2021/12/14 03:13:33;;;;;;;257.30;133.00;;;;;;;0.86;100.00;100028.77;102518;1307;61329;-76
2021/12/14 03:16:03;;;;;;;250.50;132.10;;;;;;;0.86;100.00;100027.38;102564;1307;61314;-76
2021/12/14 03:18:37;;;;;;;268.30;136.80;;;;;;;0.86;100.00;100030.69;102270;1312;73409;-76
2021/12/14 03:21:17;;;;;;;257.10;131.40;;;;;;;0.88;100.00;100032.61;102701;1308;70458;-76
2021/12/14 03:23:51;;;;;;;246.60;127.60;;;;;;;0.91;100.00;100035.02;102640;1314;74302;-77
2021/12/14 03:26:22;;;;;;;264.40;129.60;;;;;;;0.90;100.00;100040.64;102524;1313;61364;-77
2021/12/14 03:28:52;;;;;;;253.10;127.10;;;;;;;0.89;100.00;100040.82;102554;1308;62090;-77
2021/12/14 03:31:32;;;;;;;265.30;128.80;;;;;;;0.92;100.00;100043.23;102570;1311;76283;-77
2021/12/14 03:34:21;;;;;;;262.20;125.80;;;;;;;0.94;100.00;100038.33;102529;1307;70515;-76
2021/12/14 03:36:53;;;;;;;238.90;120.80;;;;;;;0.92;100.00;100035.71;102539;1308;73884;-77
2021/12/14 03:39:22;;;;;;;248.20;119.60;;;;;;;0.90;100.00;100040.30;102597;1313;61301;-77
2021/12/14 03:41:58;;;;;;;240.80;123.50;;;;;;;0.88;100.00;100040.48;102591;1313;61912;-78
2021/12/14 03:44:27;;;;;;;249.20;124.00;;;;;;;0.87;100.00;100039.98;102614;1308;75488;-77
2021/12/14 03:47:05;;;;;;;257.10;130.30;;;;;;;0.83;100.00;100038.25;102555;1308;70435;-78
2021/12/14 03:49:40;;;;;;;251.20;131.00;;;;;;;0.82;100.00;100029.71;102531;1307;73825;-78
2021/12/14 03:52:09;;;;;;;273.50;142.60;;;;;;;0.82;100.00;100025.16;102517;1311;61243;-77
2021/12/14 03:54:37;;;;;;;300.50;148.40;;;;;;;0.80;100.00;100017.65;102599;1314;61289;-77
2021/12/14 03:57:05;;;;;;;280.90;140.10;;;;;;;0.80;100.00;100017.66;102548;1314;75449;-76
2021/12/14 03:59:33;;;;;;;285.80;135.30;;;;;;;0.78;100.00;100018.72;102526;1311;70027;-77
2021/12/14 04:02:03;;;;;;;276.90;133.80;;;;;;;0.77;100.00;100023.46;102546;1311;74373;-77
2021/12/14 04:04:42;;;;;;;264.20;128.90;;;;;;;0.80;100.00;100024.13;102537;1307;61370;-76
2021/12/14 04:07:14;;;;;;;278.80;134.00;;;;;;;0.79;100.00;100026.93;102556;1311;61206;-76
2021/12/14 04:09:42;;;;;;;275.70;129.40;;;;;;;0.77;100.00;100025.73;102549;1307;75836;-76
2021/12/14 04:12:14;;;;;;;261.50;127.70;;;;;;;0.75;100.00;100027.14;102501;1307;69779;-77
2021/12/14 04:14:44;;;;;;;260.90;124.90;;;;;;;0.73;100.00;100029.61;102619;1311;73332;-76
2021/12/14 04:17:12;;;;;;;265.90;129.00;;;;;;;0.70;100.00;100023.70;102505;1311;61404;-77
2021/12/14 04:19:40;;;;;;;252.70;124.10;;;;;;;0.72;100.00;100024.75;102505;1307;61911;-76
2021/12/14 04:22:16;;;;;;;250.20;122.30;;;;;;;0.72;100.00;100024.03;102554;1307;75049;-76
2021/12/14 04:24:46;;;;;;;240.30;125.20;;;;;;;0.72;100.00;100024.58;102542;1314;70330;-75
2021/12/14 04:27:20;;;;;;;248.60;123.00;;;;;;;0.72;100.00;100025.62;102516;1308;73498;-76
2021/12/14 04:29:48;;;;;;;262.00;125.80;;;;;;;0.73;100.00;100028.23;102491;1311;61290;-77
2021/12/14 04:32:17;;;;;;;256.80;130.10;;;;;;;0.75;100.00;100029.95;102646;1308;61518;-76
2021/12/14 04:34:48;;;;;;;253.90;130.30;;;;;;;0.80;100.00;100034.79;102567;1307;76096;-76
2021/12/14 04:37:16;;;;;;;262.40;129.10;;;;;;;0.83;100.00;100031.44;102540;1314;70230;-77
2021/12/14 04:39:56;;;;;;;256.20;131.60;;;;;;;0.82;100.00;100032.14;102567;1314;73362;-77
2021/12/14 04:53:44;;;;;;;243.10;125.60;;;;;;;0.84;100.00;100024.95;102520;1307;74677;-77
2021/12/14 04:56:18;;;;;;;256.70;128.90;;;;;;;0.83;100.00;100020.94;102589;1311;61428;-77
2021/12/14 04:58:51;;;;;;;252.90;130.40;;;;;;;0.80;100.00;100023.60;102572;1314;61286;-77
2021/12/14 05:01:19;;;;;;;237.00;125.30;;;;;;;0.77;100.00;100026.42;102591;1307;75154;-76
2021/12/14 05:03:56;;;;;;;240.90;127.10;;;;;;;0.76;100.00;100030.98;101811;1314;1003152;-76
2021/12/14 05:06:31;;;;;;;266.00;131.30;;;;;;;0.75;100.00;100032.56;102514;1310;73298;-77
2021/12/14 05:09:25;;;;;;;265.00;130.10;;;;;;;0.78;100.00;100032.18;102543;1307;61326;-76
2021/12/14 05:11:56;;;;;;;237.40;126.10;;;;;;;0.79;100.00;100033.94;102568;1314;61219;-76
2021/12/14 05:14:27;;;;;;;243.60;126.90;;;;;;;0.79;100.00;100034.98;102273;1315;74283;-78
2021/12/14 05:16:57;;;;;;;247.10;126.80;;;;;;;0.80;100.00;100038.13;102507;1314;69519;-78
2021/12/14 05:19:26;;;;;;;246.10;124.70;;;;;;;0.79;100.00;100043.90;102582;1314;72733;-77
2021/12/14 05:21:59;;;;;;;254.10;132.40;;;;;;;0.78;100.00;100041.29;102572;1308;61326;-77
2021/12/14 05:24:27;;;;;;;241.90;127.40;;;;;;;0.78;100.00;100040.23;102594;1307;61295;-76
2021/12/14 05:26:59;;;;;;;241.70;123.70;;;;;;;0.80;100.00;100037.95;102472;1316;74945;-77
2021/12/14 05:29:28;;;;;;;233.20;122.00;;;;;;;0.81;100.00;100029.52;102607;1314;69585;-76
2021/12/14 05:31:56;;;;;;;228.30;120.10;;;;;;;0.80;100.00;100035.49;102587;1307;73729;-76
2021/12/14 05:34:27;;;;;;;233.50;125.30;;;;;;;0.80;100.00;100035.85;102766;1311;61437;-76
2021/12/14 05:36:55;;;;;;;223.20;121.70;;;;;;;0.81;100.00;100028.48;102493;1310;61506;-76
2021/12/14 05:44:52;;;;;;;225.70;120.80;;;;;;;0.79;100.00;100002.27;103451;1314;73553;-77
2021/12/14 05:47:19;;;;;;;217.90;117.80;;;;;;;0.79;100.00;100001.92;102877;1315;61351;-76
2021/12/14 05:49:48;;;;;;;218.60;118.90;;;;;;;0.80;100.00;100001.55;102586;1313;61319;-76
2021/12/14 05:52:26;;;;;;;225.40;123.20;;;;;;;0.81;100.00;100001.54;102762;1307;75483;-75
2021/12/14 05:54:55;;;;;;;226.80;121.90;;;;;;;0.82;100.00;100002.95;102820;1313;69529;-76
2021/12/14 05:57:25;;;;;;;211.20;119.00;;;;;;;0.81;100.00;100011.52;102596;1308;72710;-77
2021/12/14 05:59:54;;;;;;;233.40;129.80;;;;;;;0.81;100.00;100008.36;102585;1307;61385;-77
2021/12/14 06:02:23;;;;;;;227.70;128.50;;;;;;;0.85;100.00;100009.91;102495;1308;62125;-77
2021/12/14 06:04:52;;;;;;;239.90;131.50;;;;;;;0.86;100.00;100015.31;102634;1314;75221;-76
2021/12/14 06:07:20;;;;;;;231.60;129.60;;;;;;;0.85;100.00;100021.27;102686;1308;70379;-77
2021/12/14 06:09:51;;;;;;;241.00;128.90;;;;;;;0.84;100.00;100015.16;102593;1314;71553;-77
2021/12/14 06:12:24;;;;;;;242.00;132.80;;;;;;;0.83;100.00;100015.35;102731;1314;61343;-76
2021/12/14 06:14:55;;;;;;;231.40;131.00;;;;;;;0.81;100.00;100011.86;102578;1315;61296;-76
2021/12/14 06:17:32;;;;;;;238.10;133.50;;;;;;;0.80;100.00;100004.88;102282;1315;75031;-76
2021/12/14 06:20:08;;;;;;;226.40;127.30;;;;;;;0.83;100.00;99999.94;102523;1314;70526;-76
2021/12/14 06:22:37;;;;;;;227.70;130.00;;;;;;;0.85;100.00;99999.40;102633;1310;73844;-77
2021/12/14 06:25:12;;;;;;;220.50;128.50;;;;;;;0.85;100.00;100001.14;102682;1313;61229;-77
2021/12/14 06:27:39;;;;;;;215.80;124.40;;;;;;;0.85;100.00;99995.37;102625;1314;61357;-76
2021/12/14 06:30:13;;;;;;;213.70;126.30;;;;;;;0.85;100.00;99993.98;102559;1313;75503;-77
2021/12/14 06:32:45;;;;;;;236.70;136.30;;;;;;;0.84;100.00;99998.54;102569;1314;69862;-76
2021/12/14 06:35:20;;;;;;;237.90;138.80;;;;;;;0.85;100.00;99999.92;102550;1313;74439;-76
2021/12/14 06:40:43;;;;;;;235.70;146.20;;;;;;;0.91;100.00;100000.04;102545;1314;61421;-77
2021/12/14 06:43:18;;;;;;;227.30;140.60;;;;;;;0.94;100.00;100000.70;102530;1314;76926;-77
2021/12/14 06:45:48;;;;;;;230.10;135.00;;;;;;;0.95;100.00;99995.44;102648;1307;69837;-77
2021/12/14 06:48:20;;;;;;;;;;;;;;;0.95;100.00;99993.34;102292;1315;74711;-76
2021/12/14 06:50:51;;;;;;;224.00;129.60;;;;;;;0.92;100.00;99995.64;102553;1314;62535;-76
2021/12/14 06:53:22;;;;;;;218.60;132.40;;;;;;;0.91;100.00;99993.38;102670;1314;61257;-76
2021/12/14 06:55:52;;;;;;;204.40;125.80;;;;;;;0.92;100.00;99989.87;102539;1314;75222;-76
2021/12/14 06:58:23;;;;;;;226.60;132.60;;;;;;;0.92;100.00;99997.56;102567;1314;70601;-76
2021/12/14 07:01:13;;;;;;;234.50;137.90;;;;;;;0.94;100.00;99999.13;102571;1313;74009;-76
2021/12/14 07:04:00;;;;;;;228.10;138.70;;;;;;;0.98;100.00;99999.09;102544;1310;61384;-76
2021/12/14 07:06:43;;;;;;;233.60;140.40;;;;;;;1.00;100.00;99998.19;102549;1311;61187;-77
2021/12/14 07:09:36;;;;;;;217.80;137.30;;;;;;;1.03;100.00;99994.64;102601;1307;76314;-76
2021/12/14 07:12:19;;;;;;;219.60;134.10;;;;;;;1.07;100.00;99998.61;102546;1307;69457;-77
2021/12/14 07:15:07;;;;;;;232.20;140.90;;;;;;;1.10;100.00;99999.11;102559;1311;74149;-76
2021/12/14 07:17:43;;;;;;;214.30;132.50;;;;;;;1.14;100.00;99996.26;102580;1307;61284;-77
2021/12/14 07:20:33;;;;;;;228.20;135.50;;;;;;;1.19;100.00;99999.70;102537;1314;62651;-76
2021/12/14 07:23:04;;;;;;;;;;;;;;;1.23;100.00;99999.64;102672;1310;73926;-76
2021/12/14 07:25:39;;;;;;;224.30;133.60;;;;;;;1.26;100.00;99994.71;102554;1314;69388;-76
2021/12/14 07:28:09;;;;;;;210.50;129.90;;;;;;;1.30;100.00;99995.36;102594;1307;73300;-76
2021/12/14 07:30:38;;;;;;;245.50;140.80;;;;;;;1.35;100.00;99994.08;102555;1314;61309;-77
2021/12/14 07:33:22;;;;;;;224.40;140.00;;;;;;;1.41;100.00;99995.05;102595;1314;61311;-76
2021/12/14 07:35:59;;;;;;;206.40;133.20;;;;;;;1.50;100.00;99994.36;102582;1313;75105;-77
2021/12/14 07:38:44;;;;;;;206.90;133.70;;;;;;;1.60;100.00;99994.42;102576;1314;69728;-77
2021/12/14 07:41:18;;;;;;;204.20;134.80;;;;;;;1.67;100.00;99992.21;102609;1308;73680;-77
2021/12/14 07:43:58;;;;;;;275.20;158.10;;;;;;;1.72;100.00;99992.48;102611;1307;62068;-77
2021/12/14 07:46:31;;;;;;;;;;;;;;;1.76;100.00;99986.47;102558;1308;62844;-78
2021/12/14 07:48:59;;;;;;;276.00;167.00;;;;;;;1.78;100.00;99990.83;102587;1310;75276;-78
2021/12/14 07:51:28;;;;;;;271.90;164.30;;;;;;;1.81;100.00;99991.81;102593;1314;69267;-77
2021/12/14 07:54:19;;;;;;;299.80;178.80;;;;;;;1.82;100.00;99994.61;102973;1313;74231;-83
2021/12/14 07:56:49;;;;;;;269.90;164.20;;;;;;;1.87;100.00;99999.45;103014;1314;61222;-83
2021/12/14 07:59:22;;;;;;;264.60;167.70;;;;;;;1.89;100.00;99998.88;102535;1314;61363;-81
2021/12/14 08:02:05;;;;;;;237.60;152.10;;;;;;;1.92;100.00;100001.48;102919;1313;74429;-80
2021/12/14 08:04:34;;;;;;;238.60;150.30;;;;;;;1.91;100.00;99999.02;102893;1308;70578;-81
2021/12/14 08:07:01;;;;;;;255.00;164.90;;;;;;;1.91;100.00;99999.02;102976;1313;73737;-82
2021/12/14 08:09:48;;;;;;;245.00;162.90;;;;;;;1.92;100.00;99993.23;102666;1316;61422;-74
2021/12/14 08:12:37;;;;;;;249.40;162.40;;;;;;;1.96;100.00;99995.45;102750;1308;61324;-74
2021/12/14 08:15:18;;;;;;;243.20;157.50;;;;;;;1.98;100.00;99990.52;102334;1314;74921;-76
2021/12/14 08:17:57;;;;;;;230.20;148.70;;;;;;;2.00;100.00;99992.77;102489;1313;68679;-75
2021/12/14 08:20:26;;;;;;;227.40;146.40;;;;;;;2.02;100.00;99992.90;102541;1311;74787;-74
2021/12/14 08:22:56;;;;;;;236.70;150.90;;;;;;;2.06;100.00;99997.05;102708;1310;61399;-75
2021/12/14 08:25:29;;;;;;;225.70;147.40;;;;;;;2.10;100.00;99998.73;102539;1308;61347;-74
2021/12/14 08:28:00;;;;;;;226.10;142.80;;;;;;;2.17;100.00;100001.77;102562;1308;76609;-75
2021/12/14 08:30:28;;;;;;;225.90;142.70;;;;;;;2.19;100.00;100000.86;102563;1311;69247;-74
2021/12/14 08:32:56;;;;;;;227.30;144.70;;;;;;;2.20;100.00;100003.66;102613;1307;73487;-77
2021/12/14 08:35:23;;;;;;;225.80;142.80;;;;;;;2.20;100.00;100008.56;102658;1307;61317;-76
2021/12/14 08:37:57;;;;;;;264.00;164.30;;;;;;;2.19;100.00;100007.50;102688;1311;61566;-77
2021/12/14 08:40:38;;;;;;;250.70;156.20;;;;;;;2.24;100.00;100007.45;102748;1307;76040;-77
2021/12/14 08:43:13;;;;;;;289.30;175.30;;;;;;;2.26;100.00;100012.66;102653;1311;70132;-77
2021/12/14 08:45:47;;;;;;;213.00;141.90;;;;;;;2.27;100.00;100016.70;102740;1308;74716;-76
2021/12/14 08:48:23;;;;;;;238.10;151.80;;;;;;;2.24;100.00;100020.25;103055;1314;61358;-76
2021/12/14 08:50:56;;;;;;;232.00;147.90;;;;;;;2.20;100.00;100027.48;102920;1307;61350;-76
2021/12/14 08:53:29;;;;;;;238.00;149.70;;;;;;;2.24;100.00;100027.25;102672;1311;75230;-76
2021/12/14 08:55:58;;;;;;;244.80;151.60;;;;;;;2.28;100.00;100021.77;102740;1314;68967;-77
2021/12/14 08:58:28;;;;;;;243.30;155.40;;;;;;;2.31;100.00;100018.55;103018;1311;72876;-75
2021/12/14 09:01:01;;;;;;;244.10;156.60;;;;;;;2.30;100.00;100021.02;102804;1315;61481;-76
2021/12/14 09:03:33;;;;;;;226.90;150.00;;;;;;;2.33;100.00;100019.58;103172;1308;61234;-76
2021/12/14 09:06:16;;;;;;;235.90;148.00;;;;;;;2.43;100.00;100021.51;103317;1310;75111;-76
2021/12/14 09:08:47;;;;;;;220.40;144.10;;;;;;;2.50;100.00;100020.86;103441;1311;69791;-78
2021/12/14 09:11:16;;;;;;;225.40;147.00;;;;;;;2.56;100.00;100011.97;103620;1307;73118;-77
2021/12/14 09:13:43;;;;;;;243.90;156.20;;;;;;;2.62;100.00;99997.84;103939;1314;61336;-79
2021/12/14 09:16:17;;;;;;;241.30;158.20;;;;;;;2.70;100.00;99993.46;105848;1307;60319;-77
2021/12/14 09:18:51;;;;;;;233.00;152.10;;;;;;;2.80;100.00;99990.64;105858;1315;75619;-76
2021/12/14 09:21:30;;;;;;;229.80;155.10;;;;;;;2.84;100.00;99988.80;105223;1313;69492;-75
2021/12/14 09:24:06;;;;;;;228.10;151.90;;;;;;;2.93;100.00;99988.11;105340;1313;73288;-76
2021/12/14 09:26:36;;;;;;;231.30;151.30;;;;;;;3.04;100.00;99981.04;103424;1313;61308;-77
2021/12/14 09:29:04;;;;;;;;;;;;;;;3.11;100.00;99978.27;102488;1317;61394;-77
2021/12/14 09:31:35;;;;;;;229.10;154.20;;;;;;;3.17;100.00;99976.91;102303;1314;76055;-80
2021/12/14 09:34:04;;;;;;;232.50;159.50;;;;;;;3.23;100.00;99974.69;102456;1317;69677;-78
2021/12/14 09:36:32;;;;;;;219.30;152.00;;;;;;;3.30;100.00;99972.95;102426;1314;73097;-79
2021/12/14 09:39:12;;;;;;;206.00;146.00;;;;;;;3.40;100.00;99970.64;102219;1319;61415;-77
2021/12/14 09:41:42;;;;;;;209.90;147.40;;;;;;;3.46;100.00;99967.66;101926;1317;61251;-78
2021/12/14 09:44:14;;;;;;;206.50;142.50;;;;;;;3.51;100.00;99966.69;101987;1317;76471;-78
2021/12/14 09:46:41;;;;;;;205.60;143.00;;;;;;;3.54;100.00;99965.92;102282;1313;70241;-75
2021/12/14 09:49:12;;;;;;;202.40;140.60;;;;;;;3.56;100.00;99965.19;102223;1313;72175;-77
2021/12/14 09:51:42;;;;;;;205.10;144.30;;;;;;;3.57;100.00;99966.02;102318;1313;61486;-77
2021/12/14 09:54:12;;;;;;;213.60;149.60;;;;;;;3.55;100.00;99960.80;102371;1313;61382;-75
2021/12/14 09:56:45;;;;;;;197.00;142.50;;;;;;;3.57;100.00;99960.25;102223;1313;75772;-77
2021/12/14 09:59:12;;;;;;;206.10;143.00;;;;;;;3.58;100.00;99962.49;102497;1307;69395;-78
2021/12/14 10:02:05;;;;;;;201.50;142.20;;;;;;;3.56;100.00;99966.58;102480;1311;74440;-76
2021/12/14 10:04:44;;;;;;;199.40;142.70;;;;;;;3.56;100.00;99964.31;102387;1315;61306;-76
2021/12/14 10:07:11;;;;;;;202.20;146.20;;;;;;;3.60;99.99;99968.42;102488;1308;61355;-76
2021/12/14 10:09:44;;;;;;;201.20;144.80;;;;;;;3.68;99.85;99962.08;102553;1309;74555;-77
2021/12/14 10:15:07;;;;;;;200.30;148.80;;;;;;;3.85;99.36;99953.77;102554;1308;73512;-82
2021/12/14 10:17:35;;;;;;;214.90;157.40;;;;;;;3.90;99.47;99953.46;102525;1307;61377;-82
2021/12/14 10:20:04;;;;;;;212.80;159.50;;;;;;;3.96;99.40;99954.22;102541;1311;61500;-77
2021/12/14 10:22:32;;;;;;;226.60;158.00;;;;;;;3.97;99.23;99949.08;102569;1307;75840;-77
2021/12/14 10:25:04;;;;;;;210.40;154.80;;;;;;;3.99;99.04;99945.17;102550;1307;69685;-77
2021/12/14 10:27:34;;;;;;;200.70;148.20;;;;;;;4.06;99.04;99938.14;102236;1311;73362;-79
2021/12/14 10:30:05;;;;;;;186.70;137.30;;;;;;;4.11;99.00;99939.44;102541;1308;61392;-78
2021/12/14 10:32:34;;;;;;;181.50;134.50;;;;;;;4.18;98.84;99939.95;102561;1308;61380;-76
2021/12/14 10:35:09;;;;;;;179.30;136.30;;;;;;;4.30;98.58;99939.11;102590;1310;76638;-77
2021/12/14 10:38:00;;;;;;;170.10;130.80;;;;;;;4.40;98.62;99929.68;102303;1313;69825;-76
2021/12/14 10:43:20;;;;;;;163.60;123.00;;;;;;;4.50;98.11;99930.12;102555;1307;61328;-75
2021/12/14 10:45:58;;;;;;;157.10;122.10;;;;;;;4.51;98.22;99926.73;102565;1307;61335;-76
2021/12/14 10:48:30;;;;;;;166.50;122.80;;;;;;;4.54;98.21;99929.13;102290;1310;75242;-77
2021/12/14 10:51:02;;;;;;;155.90;118.70;;;;;;;4.58;98.00;99933.44;102651;1308;69554;-77
2021/12/14 10:53:29;;;;;;;150.80;115.90;;;;;;;4.56;98.09;99933.31;102676;1311;74316;-77
2021/12/14 10:56:04;;;;;;;149.70;115.10;;;;;;;4.61;98.01;99926.66;102664;1307;61317;-77
2021/12/14 10:58:31;;;;;;;150.20;112.80;;;;;;;4.72;97.89;99920.02;102542;1307;62084;-76
2021/12/14 11:01:04;;;;;;;147.30;110.80;;;;;;;4.84;97.92;99919.33;102440;1307;75208;-79
2021/12/14 11:03:36;;;;;;;165.10;124.10;;;;;;;4.93;97.86;99913.25;102660;1314;69244;-78
2021/12/14 11:06:09;;;;;;;158.50;121.50;;;;;;;4.94;97.69;99913.39;102679;1307;74270;-79
2021/12/14 11:08:56;;;;;;;166.70;125.30;;;;;;;4.91;97.35;99918.60;102841;1308;61342;-76
2021/12/14 11:11:35;;;;;;;152.40;115.40;;;;;;;4.83;97.40;99921.29;103757;1311;61324;-76
2021/12/14 11:14:07;;;;;;;134.70;97.70;;;;;;;4.78;97.28;99918.98;103905;1308;76511;-77
2021/12/14 11:19:41;;;;;;;146.20;107.70;;;;;;;4.78;97.47;99902.08;102320;1313;72671;-78
2021/12/14 11:22:18;;;;;;;141.50;108.10;;;;;;;4.79;97.46;99898.88;102311;1313;61348;-77
2021/12/14 11:24:49;;;;;;;143.10;104.40;;;;;;;4.81;97.39;99901.96;102465;1311;61590;-77
2021/12/14 11:27:22;;;;;;;137.60;105.80;;;;;;;4.91;97.34;99900.63;102533;1308;75434;-77
2021/12/14 11:29:52;;;;;;;130.30;98.10;;;;;;;4.92;96.83;99896.72;102583;1308;70611;-77
2021/12/14 11:32:22;;;;;;;134.40;101.10;;;;;;;4.96;96.79;99897.48;102512;1307;74394;-76
2021/12/14 11:34:51;;;;;;;133.80;99.90;;;;;;;4.97;96.50;99897.98;102547;1308;61474;-76
2021/12/14 11:37:23;;;;;;;132.50;100.00;;;;;;;4.93;96.52;99902.67;102499;1307;62096;-75
2021/12/14 11:39:53;;;;;;;133.90;98.20;;;;;;;4.90;96.49;99906.13;102579;1308;75409;-76
2021/12/14 11:42:19;;;;;;;136.30;98.30;;;;;;;4.86;96.53;99900.09;102511;1307;69628;-76
2021/12/14 11:44:56;;;;;;;127.50;96.30;;;;;;;4.85;96.62;99896.05;102446;1307;61345;-76
2021/12/14 11:50:14;;;;;;;131.30;96.60;;;;;;;4.87;96.52;99890.54;102605;1307;61858;-78
2021/12/14 11:52:57;;;;;;;129.70;96.50;;;;;;;4.86;96.67;99889.52;102381;1313;74172;-77
2021/12/14 11:55:36;;;;;;;133.90;102.50;;;;;;;4.83;96.47;99885.73;102538;1307;70857;-81